首页
METAR-TAF:

METAR-TAF

机场 :

多倫多皮爾遜國際機場

多伦多, 安大略省, 加拿大

纬度: 43-40N, 经度: 079-38W, 海拔: 173米

当前天气观测

该预报发布于58分钟前的01:00 UTC
风速10节,风向
温度 12°C
湿度 67%
气压 1019 hPa
能見度: 24.1公里
少量云层高于5500英尺

METAR: CYYZ 310100Z 35010KT 15SM FEW055 12/06 A3008 RMK SC2 SLP188

时间: 21:58 (01:58 UTC)

预报

该预报发布于2小时和20分钟前的23:38 UTC
预报有效从31日的 00点(UTC)到 01日的 06点(UTC)
风速15节,风向北转西北,有时为25节阵风
能見度: 10公里
散云层高于5000英尺
短暂存在
从 31日的 00点(UTC)到 31日的 04点(UTC)
多云层高于5000英尺
成为
从 31日的 00点(UTC)到 31日的 02点(UTC)
风速12节,风向北转西北
从 31日的 0400点(UTC)
风速10节,风向北转西北
能見度: 10公里
散云层高于4000英尺
从 31日的 0700点(UTC)
风速10节,风向北转西北
能見度: 10公里
多云层高于3000英尺
从 31日的 1100点(UTC)
风速12节,风向北转西北
能見度: 10公里
少量云层高于3000英尺
从 31日的 1900点(UTC)
风速15节,风向西北,有时为25节阵风
能見度: 10公里
多云层高于6000英尺

TAF: CYYZ 302338Z 3100/0106 34015G25KT P6SM SCT050 TEMPO 3100/3104 BKN050 BECMG 3100/3102 34012KT FM310400 34010KT P6SM SCT040 FM310700 34010KT P6SM BKN030 FM311100 34012KT P6SM FEW030 FM311900 31015G25KT P6SM BKN060 RMK NXT FCST BY 310300Z

超过4000个机场的气象观测和天气预报(METAR&TAF报告)。

可查询的气象台以黄色和红色小点在地图上表示。

将鼠标移到小点上方,可查看气象台名称。

然后点击查看天气观测和预报。

如需切换地图:点击带黑十字的绿色按钮放大地图;点击带横线的绿色按钮缩小地图;或者点击绿色箭头查看邻近地区的地图。


METAR-TAF: